sensor_id;sensor_type;location;lat;lon;timestamp;temperature;humidity
36416;DHT22;22447;44.530;18.620;2023-04-01T00:00:30;14.00;99.90
36416;DHT22;22447;44.530;18.620;2023-04-01T00:02:56;13.90;99.90
36416;DHT22;22447;44.530;18.620;2023-04-01T00:05:22;13.90;99.90
36416;DHT22;22447;44.530;18.620;2023-04-01T00:07:49;13.80;99.90
36416;DHT22;22447;44.530;18.620;2023-04-01T00:10:15;13.80;99.90
36416;DHT22;22447;44.530;18.620;2023-04-01T00:12:41;13.80;99.90
36416;DHT22;22447;44.530;18.620;2023-04-01T00:15:08;13.70;99.90
36416;DHT22;22447;44.530;18.620;2023-04-01T00:17:34;13.70;99.90
36416;DHT22;22447;44.530;18.620;2023-04-01T00:20:00;13.70;99.90
36416;DHT22;22447;44.530;18.620;2023-04-01T00:22:26;13.60;99.90
36416;DHT22;22447;44.530;18.620;2023-04-01T00:24:52;13.50;99.90
36416;DHT22;22447;44.530;18.620;2023-04-01T00:27:18;13.40;99.90
36416;DHT22;22447;44.530;18.620;2023-04-01T00:29:45;13.50;99.90
36416;DHT22;22447;44.530;18.620;2023-04-01T00:32:11;13.40;99.90
36416;DHT22;22447;44.530;18.620;2023-04-01T00:34:36;13.40;99.90
36416;DHT22;22447;44.530;18.620;2023-04-01T00:37:03;13.20;99.90
36416;DHT22;22447;44.530;18.620;2023-04-01T00:39:29;13.10;99.90
36416;DHT22;22447;44.530;18.620;2023-04-01T00:41:55;13.10;99.90
36416;DHT22;22447;44.530;18.620;2023-04-01T00:44:23;13.00;99.90
36416;DHT22;22447;44.530;18.620;2023-04-01T00:46:49;13.00;99.90
36416;DHT22;22447;44.530;18.620;2023-04-01T00:49:16;13.00;99.90
36416;DHT22;22447;44.530;18.620;2023-04-01T00:51:43;13.00;99.90
36416;DHT22;22447;44.530;18.620;2023-04-01T00:54:10;12.90;99.90
36416;DHT22;22447;44.530;18.620;2023-04-01T00:56:37;13.00;99.90
36416;DHT22;22447;44.530;18.620;2023-04-01T00:59:13;12.90;99.90
36416;DHT22;22447;44.530;18.620;2023-04-01T01:01:39;13.00;99.90
36416;DHT22;22447;44.530;18.620;2023-04-01T01:04:05;12.90;99.90
36416;DHT22;22447;44.530;18.620;2023-04-01T01:06:36;12.90;99.90
36416;DHT22;22447;44.530;18.620;2023-04-01T01:14:58;13.00;99.90
36416;DHT22;22447;44.530;18.620;2023-04-01T01:22:21;12.80;99.90
36416;DHT22;22447;44.530;18.620;2023-04-01T01:27:58;12.70;99.90
36416;DHT22;22447;44.530;18.620;2023-04-01T01:33:06;12.70;99.90
36416;DHT22;22447;44.530;18.620;2023-04-01T01:35:37;12.60;99.90
36416;DHT22;22447;44.530;18.620;2023-04-01T01:38:11;12.50;99.90
36416;DHT22;22447;44.530;18.620;2023-04-01T01:40:41;12.50;99.90
36416;DHT22;22447;44.530;18.620;2023-04-01T01:43:09;12.50;99.90
36416;DHT22;22447;44.530;18.620;2023-04-01T01:45:36;12.50;99.90
36416;DHT22;22447;44.530;18.620;2023-04-01T01:48:05;12.40;99.90
36416;DHT22;22447;44.530;18.620;2023-04-01T01:50:32;12.40;99.90
36416;DHT22;22447;44.530;18.620;2023-04-01T01:53:02;12.30;99.90
36416;DHT22;22447;44.530;18.620;2023-04-01T01:55:30;12.30;99.90
36416;DHT22;22447;44.530;18.620;2023-04-01T01:58:01;12.30;99.90
36416;DHT22;22447;44.530;18.620;2023-04-01T02:00:28;12.20;99.90
36416;DHT22;22447;44.530;18.620;2023-04-01T02:02:55;12.10;99.90
36416;DHT22;22447;44.530;18.620;2023-04-01T02:05:23;11.90;99.90
36416;DHT22;22447;44.530;18.620;2023-04-01T02:07:54;12.00;99.90
36416;DHT22;22447;44.530;18.620;2023-04-01T02:10:22;11.90;99.90
36416;DHT22;22447;44.530;18.620;2023-04-01T02:12:50;11.90;99.90
36416;DHT22;22447;44.530;18.620;2023-04-01T02:15:16;11.90;99.90
36416;DHT22;22447;44.530;18.620;2023-04-01T02:17:43;12.00;99.90
36416;DHT22;22447;44.530;18.620;2023-04-01T02:20:28;11.90;99.90
36416;DHT22;22447;44.530;18.620;2023-04-01T02:22:56;11.90;99.90
36416;DHT22;22447;44.530;18.620;2023-04-01T02:25:24;11.90;99.90
36416;DHT22;22447;44.530;18.620;2023-04-01T02:27:50;11.90;99.90
36416;DHT22;22447;44.530;18.620;2023-04-01T02:30:17;11.90;99.90
36416;DHT22;22447;44.530;18.620;2023-04-01T02:32:43;11.90;99.90
36416;DHT22;22447;44.530;18.620;2023-04-01T02:35:10;11.90;99.90
36416;DHT22;22447;44.530;18.620;2023-04-01T02:37:37;11.90;99.90
36416;DHT22;22447;44.530;18.620;2023-04-01T02:40:03;11.90;99.90
36416;DHT22;22447;44.530;18.620;2023-04-01T02:42:31;11.90;99.90
36416;DHT22;22447;44.530;18.620;2023-04-01T02:44:57;11.80;99.90
36416;DHT22;22447;44.530;18.620;2023-04-01T02:47:23;11.80;99.90
36416;DHT22;22447;44.530;18.620;2023-04-01T02:49:49;11.60;99.90
36416;DHT22;22447;44.530;18.620;2023-04-01T02:52:15;11.50;99.90
36416;DHT22;22447;44.530;18.620;2023-04-01T02:54:40;11.50;99.90
36416;DHT22;22447;44.530;18.620;2023-04-01T02:57:06;11.60;99.90
36416;DHT22;22447;44.530;18.620;2023-04-01T02:59:32;11.50;99.90
36416;DHT22;22447;44.530;18.620;2023-04-01T03:01:58;11.50;99.90
36416;DHT22;22447;44.530;18.620;2023-04-01T03:04:24;11.50;99.90
36416;DHT22;22447;44.530;18.620;2023-04-01T03:06:50;11.60;99.90
36416;DHT22;22447;44.530;18.620;2023-04-01T03:09:16;11.50;99.90
36416;DHT22;22447;44.530;18.620;2023-04-01T03:11:42;11.50;99.90
36416;DHT22;22447;44.530;18.620;2023-04-01T03:14:08;11.50;99.90
36416;DHT22;22447;44.530;18.620;2023-04-01T03:16:34;11.50;99.90
36416;DHT22;22447;44.530;18.620;2023-04-01T03:19:00;11.50;99.90
36416;DHT22;22447;44.530;18.620;2023-04-01T03:21:28;11.40;99.90
36416;DHT22;22447;44.530;18.620;2023-04-01T03:23:54;11.40;99.90
36416;DHT22;22447;44.530;18.620;2023-04-01T03:26:19;11.40;99.90
36416;DHT22;22447;44.530;18.620;2023-04-01T03:28:47;11.40;99.90
36416;DHT22;22447;44.530;18.620;2023-04-01T03:31:13;11.30;99.90
36416;DHT22;22447;44.530;18.620;2023-04-01T03:33:45;11.30;99.90
36416;DHT22;22447;44.530;18.620;2023-04-01T03:36:11;11.40;99.90
36416;DHT22;22447;44.530;18.620;2023-04-01T03:38:39;11.40;99.90
36416;DHT22;22447;44.530;18.620;2023-04-01T03:41:05;11.30;99.90
36416;DHT22;22447;44.530;18.620;2023-04-01T03:43:32;11.40;99.90
36416;DHT22;22447;44.530;18.620;2023-04-01T03:45:58;11.30;99.90
36416;DHT22;22447;44.530;18.620;2023-04-01T03:48:24;11.30;99.90
36416;DHT22;22447;44.530;18.620;2023-04-01T03:50:51;11.30;99.90
36416;DHT22;22447;44.530;18.620;2023-04-01T03:53:17;11.20;99.90
36416;DHT22;22447;44.530;18.620;2023-04-01T03:55:45;11.20;99.90
36416;DHT22;22447;44.530;18.620;2023-04-01T03:58:11;11.20;99.90
36416;DHT22;22447;44.530;18.620;2023-04-01T04:00:36;11.20;99.90
36416;DHT22;22447;44.530;18.620;2023-04-01T04:03:02;11.20;99.90
36416;DHT22;22447;44.530;18.620;2023-04-01T04:05:32;11.30;99.90
36416;DHT22;22447;44.530;18.620;2023-04-01T04:07:59;11.20;99.90
36416;DHT22;22447;44.530;18.620;2023-04-01T04:10:25;11.20;99.90
36416;DHT22;22447;44.530;18.620;2023-04-01T04:12:51;11.10;99.90
36416;DHT22;22447;44.530;18.620;2023-04-01T04:15:18;11.00;99.90
36416;DHT22;22447;44.530;18.620;2023-04-01T04:17:45;11.00;99.90
36416;DHT22;22447;44.530;18.620;2023-04-01T04:20:13;10.90;99.90
36416;DHT22;22447;44.530;18.620;2023-04-01T04:22:38;10.80;99.90
36416;DHT22;22447;44.530;18.620;2023-04-01T04:25:07;10.80;99.90
36416;DHT22;22447;44.530;18.620;2023-04-01T04:27:33;10.90;99.90
36416;DHT22;22447;44.530;18.620;2023-04-01T04:30:06;10.80;99.90
36416;DHT22;22447;44.530;18.620;2023-04-01T04:32:33;10.80;99.90
36416;DHT22;22447;44.530;18.620;2023-04-01T04:34:59;10.80;99.90
36416;DHT22;22447;44.530;18.620;2023-04-01T04:37:25;10.70;99.90
36416;DHT22;22447;44.530;18.620;2023-04-01T04:39:52;10.70;99.90
36416;DHT22;22447;44.530;18.620;2023-04-01T04:42:18;10.60;99.90
36416;DHT22;22447;44.530;18.620;2023-04-01T04:44:44;10.60;99.90
36416;DHT22;22447;44.530;18.620;2023-04-01T04:47:10;10.60;99.90
36416;DHT22;22447;44.530;18.620;2023-04-01T04:49:36;10.70;99.90
36416;DHT22;22447;44.530;18.620;2023-04-01T04:52:06;10.70;99.90
36416;DHT22;22447;44.530;18.620;2023-04-01T04:54:32;10.70;99.90
36416;DHT22;22447;44.530;18.620;2023-04-01T04:57:00;10.70;99.90
36416;DHT22;22447;44.530;18.620;2023-04-01T04:59:30;10.70;99.90
36416;DHT22;22447;44.530;18.620;2023-04-01T05:02:02;10.70;99.90
36416;DHT22;22447;44.530;18.620;2023-04-01T05:04:28;10.70;99.90
36416;DHT22;22447;44.530;18.620;2023-04-01T05:06:54;10.80;99.90
36416;DHT22;22447;44.530;18.620;2023-04-01T05:09:21;10.90;99.90
36416;DHT22;22447;44.530;18.620;2023-04-01T05:11:47;11.00;99.90
36416;DHT22;22447;44.530;18.620;2023-04-01T05:14:14;11.00;99.90
36416;DHT22;22447;44.530;18.620;2023-04-01T05:16:41;11.10;99.90
36416;DHT22;22447;44.530;18.620;2023-04-01T05:19:07;11.10;99.90
36416;DHT22;22447;44.530;18.620;2023-04-01T05:21:33;11.10;99.90
36416;DHT22;22447;44.530;18.620;2023-04-01T05:23:59;11.10;99.90
36416;DHT22;22447;44.530;18.620;2023-04-01T05:26:25;11.10;99.90
36416;DHT22;22447;44.530;18.620;2023-04-01T05:28:51;11.10;99.90
36416;DHT22;22447;44.530;18.620;2023-04-01T05:31:17;10.90;99.90
36416;DHT22;22447;44.530;18.620;2023-04-01T05:33:45;10.80;99.90
36416;DHT22;22447;44.530;18.620;2023-04-01T05:36:12;10.70;99.90
36416;DHT22;22447;44.530;18.620;2023-04-01T05:38:39;10.70;99.90
36416;DHT22;22447;44.530;18.620;2023-04-01T05:41:07;10.50;99.90
36416;DHT22;22447;44.530;18.620;2023-04-01T05:43:37;10.60;99.90
36416;DHT22;22447;44.530;18.620;2023-04-01T05:46:23;10.70;99.90
36416;DHT22;22447;44.530;18.620;2023-04-01T05:48:55;10.70;99.90
36416;DHT22;22447;44.530;18.620;2023-04-01T05:51:23;10.60;99.90
36416;DHT22;22447;44.530;18.620;2023-04-01T05:53:49;10.70;99.90
36416;DHT22;22447;44.530;18.620;2023-04-01T05:56:15;10.60;99.90
36416;DHT22;22447;44.530;18.620;2023-04-01T05:58:47;10.60;99.90
36416;DHT22;22447;44.530;18.620;2023-04-01T06:01:15;10.60;99.90
36416;DHT22;22447;44.530;18.620;2023-04-01T06:03:43;10.60;99.90
36416;DHT22;22447;44.530;18.620;2023-04-01T06:06:16;10.70;99.90
36416;DHT22;22447;44.530;18.620;2023-04-01T06:08:42;10.80;99.90
36416;DHT22;22447;44.530;18.620;2023-04-01T06:13:53;11.00;99.90
36416;DHT22;22447;44.530;18.620;2023-04-01T06:22:01;11.30;99.90
36416;DHT22;22447;44.530;18.620;2023-04-01T06:46:02;11.10;99.90
36416;DHT22;22447;44.530;18.620;2023-04-01T06:54:42;10.90;99.90
36416;DHT22;22447;44.530;18.620;2023-04-01T06:57:33;10.80;99.90
36416;DHT22;22447;44.530;18.620;2023-04-01T07:00:00;10.70;99.90
36416;DHT22;22447;44.530;18.620;2023-04-01T07:04:53;10.70;99.90
36416;DHT22;22447;44.530;18.620;2023-04-01T07:09:56;10.60;99.90
36416;DHT22;22447;44.530;18.620;2023-04-01T07:15:16;10.60;99.90
36416;DHT22;22447;44.530;18.620;2023-04-01T07:17:42;10.50;99.90
36416;DHT22;22447;44.530;18.620;2023-04-01T07:22:42;10.40;99.90
36416;DHT22;22447;44.530;18.620;2023-04-01T07:25:30;10.40;99.90
36416;DHT22;22447;44.530;18.620;2023-04-01T07:28:16;10.40;99.90
36416;DHT22;22447;44.530;18.620;2023-04-01T07:30:56;10.20;99.90
36416;DHT22;22447;44.530;18.620;2023-04-01T07:33:28;10.30;99.90
36416;DHT22;22447;44.530;18.620;2023-04-01T07:36:03;10.20;99.90
36416;DHT22;22447;44.530;18.620;2023-04-01T07:38:57;10.20;99.90
36416;DHT22;22447;44.530;18.620;2023-04-01T07:44:20;10.20;99.90
36416;DHT22;22447;44.530;18.620;2023-04-01T07:52:30;10.20;99.90
36416;DHT22;22447;44.530;18.620;2023-04-01T07:54:43;10.10;99.90
36416;DHT22;22447;44.530;18.620;2023-04-01T07:59:51;10.10;99.90
36416;DHT22;22447;44.530;18.620;2023-04-01T08:02:28;10.10;99.90
36416;DHT22;22447;44.530;18.620;2023-04-01T08:05:09;10.10;99.90
36416;DHT22;22447;44.530;18.620;2023-04-01T08:16:32;10.00;99.90
36416;DHT22;22447;44.530;18.620;2023-04-01T08:19:13;10.00;99.90
36416;DHT22;22447;44.530;18.620;2023-04-01T08:21:43;10.00;99.90
36416;DHT22;22447;44.530;18.620;2023-04-01T08:24:19;10.00;99.90
36416;DHT22;22447;44.530;18.620;2023-04-01T08:26:48;10.00;99.90
36416;DHT22;22447;44.530;18.620;2023-04-01T08:29:16;9.90;99.90
36416;DHT22;22447;44.530;18.620;2023-04-01T08:31:45;9.90;99.90
36416;DHT22;22447;44.530;18.620;2023-04-01T08:34:19;9.90;99.90
36416;DHT22;22447;44.530;18.620;2023-04-01T08:36:48;9.80;99.90
36416;DHT22;22447;44.530;18.620;2023-04-01T08:39:18;9.80;99.90
36416;DHT22;22447;44.530;18.620;2023-04-01T08:50:04;9.80;99.90
36416;DHT22;22447;44.530;18.620;2023-04-01T09:01:19;9.80;99.90
36416;DHT22;22447;44.530;18.620;2023-04-01T09:03:53;9.80;99.90
36416;DHT22;22447;44.530;18.620;2023-04-01T09:06:36;9.70;99.90
36416;DHT22;22447;44.530;18.620;2023-04-01T09:09:27;9.80;99.90
36416;DHT22;22447;44.530;18.620;2023-04-01T09:15:00;9.80;99.90
36416;DHT22;22447;44.530;18.620;2023-04-01T09:25:39;9.70;99.90
36416;DHT22;22447;44.530;18.620;2023-04-01T09:28:10;9.70;99.90
36416;DHT22;22447;44.530;18.620;2023-04-01T09:33:46;9.80;99.90
36416;DHT22;22447;44.530;18.620;2023-04-01T09:38:55;9.80;99.90
36416;DHT22;22447;44.530;18.620;2023-04-01T09:56:52;10.20;99.90
36416;DHT22;22447;44.530;18.620;2023-04-01T10:02:27;10.30;99.90
36416;DHT22;22447;44.530;18.620;2023-04-01T10:05:25;10.30;99.90
36416;DHT22;22447;44.530;18.620;2023-04-01T10:08:11;10.30;99.90
36416;DHT22;22447;44.530;18.620;2023-04-01T10:18:40;10.30;99.90
36416;DHT22;22447;44.530;18.620;2023-04-01T10:23:52;10.20;99.90
36416;DHT22;22447;44.530;18.620;2023-04-01T10:51:33;10.40;99.90
36416;DHT22;22447;44.530;18.620;2023-04-01T10:54:13;10.30;99.90
36416;DHT22;22447;44.530;18.620;2023-04-01T11:00:32;10.20;99.90
36416;DHT22;22447;44.530;18.620;2023-04-01T11:17:09;10.30;99.90
36416;DHT22;22447;44.530;18.620;2023-04-01T11:35:05;10.90;99.90
36416;DHT22;22447;44.530;18.620;2023-04-01T11:40:45;11.00;99.90
36416;DHT22;22447;44.530;18.620;2023-04-01T11:49:42;11.20;99.90
36416;DHT22;22447;44.530;18.620;2023-04-01T12:00:14;11.10;99.90
36416;DHT22;22447;44.530;18.620;2023-04-01T12:10:23;11.10;99.90
36416;DHT22;22447;44.530;18.620;2023-04-01T12:13:02;11.20;99.90
36416;DHT22;22447;44.530;18.620;2023-04-01T12:18:21;11.10;99.90
36416;DHT22;22447;44.530;18.620;2023-04-01T12:23:19;11.00;99.90
36416;DHT22;22447;44.530;18.620;2023-04-01T12:33:55;10.80;99.90
36416;DHT22;22447;44.530;18.620;2023-04-01T12:36:28;10.80;99.90
36416;DHT22;22447;44.530;18.620;2023-04-01T12:39:07;10.70;99.90
36416;DHT22;22447;44.530;18.620;2023-04-01T12:41:53;10.80;99.90
36416;DHT22;22447;44.530;18.620;2023-04-01T12:49:32;11.10;99.90
36416;DHT22;22447;44.530;18.620;2023-04-01T12:52:08;11.10;99.90
36416;DHT22;22447;44.530;18.620;2023-04-01T13:08:07;11.40;99.90
36416;DHT22;22447;44.530;18.620;2023-04-01T13:10:42;11.50;99.90
36416;DHT22;22447;44.530;18.620;2023-04-01T13:16:01;11.80;99.90
36416;DHT22;22447;44.530;18.620;2023-04-01T13:29:20;12.30;99.90
36416;DHT22;22447;44.530;18.620;2023-04-01T13:37:01;12.80;99.90
36416;DHT22;22447;44.530;18.620;2023-04-01T13:42:16;12.70;99.90
36416;DHT22;22447;44.530;18.620;2023-04-01T13:47:24;12.70;99.90
36416;DHT22;22447;44.530;18.620;2023-04-01T13:52:49;12.90;99.90
36416;DHT22;22447;44.530;18.620;2023-04-01T13:57:56;13.40;99.90
36416;DHT22;22447;44.530;18.620;2023-04-01T14:05:53;13.80;99.90
36416;DHT22;22447;44.530;18.620;2023-04-01T14:18:52;14.10;99.90
36416;DHT22;22447;44.530;18.620;2023-04-01T14:21:46;14.30;99.90
36416;DHT22;22447;44.530;18.620;2023-04-01T14:24:29;14.50;99.90
36416;DHT22;22447;44.530;18.620;2023-04-01T14:42:55;15.30;99.90
36416;DHT22;22447;44.530;18.620;2023-04-01T14:50:56;15.20;99.90
36416;DHT22;22447;44.530;18.620;2023-04-01T14:53:28;15.00;99.90
36416;DHT22;22447;44.530;18.620;2023-04-01T14:55:55;15.10;99.90
36416;DHT22;22447;44.530;18.620;2023-04-01T14:58:22;15.10;99.90
36416;DHT22;22447;44.530;18.620;2023-04-01T15:03:24;15.30;99.90
36416;DHT22;22447;44.530;18.620;2023-04-01T15:05:56;15.30;99.90
36416;DHT22;22447;44.530;18.620;2023-04-01T15:43:50;14.50;99.90
36416;DHT22;22447;44.530;18.620;2023-04-01T15:46:41;14.50;99.90
36416;DHT22;22447;44.530;18.620;2023-04-01T15:51:46;14.30;99.90
36416;DHT22;22447;44.530;18.620;2023-04-01T16:05:05;14.00;99.90
36416;DHT22;22447;44.530;18.620;2023-04-01T16:10:19;13.90;99.90
36416;DHT22;22447;44.530;18.620;2023-04-01T16:15:52;14.00;99.90
36416;DHT22;22447;44.530;18.620;2023-04-01T16:21:05;13.80;99.90
36416;DHT22;22447;44.530;18.620;2023-04-01T16:26:22;13.70;99.90
36416;DHT22;22447;44.530;18.620;2023-04-01T16:28:57;13.50;99.90
36416;DHT22;22447;44.530;18.620;2023-04-01T16:34:10;13.50;99.90
36416;DHT22;22447;44.530;18.620;2023-04-01T16:42:01;13.40;99.90
36416;DHT22;22447;44.530;18.620;2023-04-01T16:45:19;13.30;99.90
36416;DHT22;22447;44.530;18.620;2023-04-01T16:47:27;13.20;99.90
36416;DHT22;22447;44.530;18.620;2023-04-01T16:49:58;13.00;99.90
36416;DHT22;22447;44.530;18.620;2023-04-01T16:52:43;12.90;99.90
36416;DHT22;22447;44.530;18.620;2023-04-01T16:55:17;12.80;99.90
36416;DHT22;22447;44.530;18.620;2023-04-01T16:57:55;12.60;99.90
36416;DHT22;22447;44.530;18.620;2023-04-01T17:03:04;12.20;99.90
36416;DHT22;22447;44.530;18.620;2023-04-01T17:05:37;12.10;99.90
36416;DHT22;22447;44.530;18.620;2023-04-01T17:08:07;12.00;99.90
36416;DHT22;22447;44.530;18.620;2023-04-01T17:10:42;11.90;99.90
36416;DHT22;22447;44.530;18.620;2023-04-01T17:13:16;11.70;99.90
36416;DHT22;22447;44.530;18.620;2023-04-01T17:19:13;11.40;99.90
36416;DHT22;22447;44.530;18.620;2023-04-01T17:21:21;11.30;99.90
36416;DHT22;22447;44.530;18.620;2023-04-01T17:24:12;11.10;99.90
36416;DHT22;22447;44.530;18.620;2023-04-01T17:26:51;10.90;99.90
36416;DHT22;22447;44.530;18.620;2023-04-01T17:32:11;10.70;99.90
36416;DHT22;22447;44.530;18.620;2023-04-01T17:52:39;10.20;99.90
36416;DHT22;22447;44.530;18.620;2023-04-01T17:57:52;9.90;99.90
36416;DHT22;22447;44.530;18.620;2023-04-01T18:00:28;9.80;99.90
36416;DHT22;22447;44.530;18.620;2023-04-01T18:05:42;9.60;99.90
36416;DHT22;22447;44.530;18.620;2023-04-01T18:24:33;9.50;99.90
36416;DHT22;22447;44.530;18.620;2023-04-01T18:29:46;9.60;99.90
36416;DHT22;22447;44.530;18.620;2023-04-01T18:38:31;9.60;99.90
36416;DHT22;22447;44.530;18.620;2023-04-01T18:40:32;9.70;99.90
36416;DHT22;22447;44.530;18.620;2023-04-01T18:43:21;9.70;99.90
36416;DHT22;22447;44.530;18.620;2023-04-01T18:45:59;9.80;99.90
36416;DHT22;22447;44.530;18.620;2023-04-01T18:51:16;9.80;99.90
36416;DHT22;22447;44.530;18.620;2023-04-01T18:56:22;9.90;99.90
36416;DHT22;22447;44.530;18.620;2023-04-01T19:06:43;9.90;99.90
36416;DHT22;22447;44.530;18.620;2023-04-01T19:09:20;9.90;99.90
36416;DHT22;22447;44.530;18.620;2023-04-01T19:11:50;9.90;99.90
36416;DHT22;22447;44.530;18.620;2023-04-01T19:14:26;9.90;99.90
36416;DHT22;22447;44.530;18.620;2023-04-01T19:17:07;9.90;99.90
36416;DHT22;22447;44.530;18.620;2023-04-01T19:39:48;9.80;99.90
36416;DHT22;22447;44.530;18.620;2023-04-01T19:45:04;9.70;99.90
36416;DHT22;22447;44.530;18.620;2023-04-01T19:50:50;9.60;99.90
36416;DHT22;22447;44.530;18.620;2023-04-01T19:58:36;9.50;99.90
36416;DHT22;22447;44.530;18.620;2023-04-01T20:01:05;9.30;99.90
36416;DHT22;22447;44.530;18.620;2023-04-01T20:03:49;9.30;99.90
36416;DHT22;22447;44.530;18.620;2023-04-01T20:16:43;9.00;99.90
36416;DHT22;22447;44.530;18.620;2023-04-01T20:19:12;8.90;99.90
36416;DHT22;22447;44.530;18.620;2023-04-01T20:21:42;8.90;99.90
36416;DHT22;22447;44.530;18.620;2023-04-01T20:26:43;8.70;99.90
36416;DHT22;22447;44.530;18.620;2023-04-01T20:31:59;8.40;99.90
36416;DHT22;22447;44.530;18.620;2023-04-01T20:45:38;8.40;99.90
36416;DHT22;22447;44.530;18.620;2023-04-01T20:51:13;8.50;99.90
36416;DHT22;22447;44.530;18.620;2023-04-01T20:53:42;8.30;99.90
36416;DHT22;22447;44.530;18.620;2023-04-01T20:56:21;8.10;99.90
36416;DHT22;22447;44.530;18.620;2023-04-01T21:06:55;7.90;99.90
36416;DHT22;22447;44.530;18.620;2023-04-01T21:14:34;7.60;99.90
36416;DHT22;22447;44.530;18.620;2023-04-01T21:22:38;7.30;99.90
36416;DHT22;22447;44.530;18.620;2023-04-01T21:27:34;7.20;99.90
36416;DHT22;22447;44.530;18.620;2023-04-01T21:35:57;7.20;99.90
36416;DHT22;22447;44.530;18.620;2023-04-01T21:53:58;6.60;99.90
36416;DHT22;22447;44.530;18.620;2023-04-01T21:56:43;6.60;99.90
36416;DHT22;22447;44.530;18.620;2023-04-01T21:59:37;6.60;99.90
36416;DHT22;22447;44.530;18.620;2023-04-01T22:09:40;6.70;99.90
36416;DHT22;22447;44.530;18.620;2023-04-01T22:14:37;6.70;99.90
36416;DHT22;22447;44.530;18.620;2023-04-01T22:17:26;6.60;99.90
36416;DHT22;22447;44.530;18.620;2023-04-01T22:25:41;6.70;99.90
36416;DHT22;22447;44.530;18.620;2023-04-01T22:28:09;6.60;99.90
36416;DHT22;22447;44.530;18.620;2023-04-01T22:30:49;6.50;99.90
36416;DHT22;22447;44.530;18.620;2023-04-01T22:33:34;6.50;99.90
36416;DHT22;22447;44.530;18.620;2023-04-01T22:38:34;6.40;99.90
36416;DHT22;22447;44.530;18.620;2023-04-01T22:43:47;6.40;99.90
36416;DHT22;22447;44.530;18.620;2023-04-01T22:49:59;6.60;99.90
36416;DHT22;22447;44.530;18.620;2023-04-01T22:52:11;6.60;99.90
36416;DHT22;22447;44.530;18.620;2023-04-01T22:57:15;6.50;99.90
36416;DHT22;22447;44.530;18.620;2023-04-01T22:59:45;6.40;99.90
36416;DHT22;22447;44.530;18.620;2023-04-01T23:02:25;6.30;99.90
36416;DHT22;22447;44.530;18.620;2023-04-01T23:04:55;6.30;99.90
36416;DHT22;22447;44.530;18.620;2023-04-01T23:07:39;6.40;99.90
36416;DHT22;22447;44.530;18.620;2023-04-01T23:10:14;6.30;99.90
36416;DHT22;22447;44.530;18.620;2023-04-01T23:12:41;6.20;99.90
36416;DHT22;22447;44.530;18.620;2023-04-01T23:15:10;6.20;99.90
36416;DHT22;22447;44.530;18.620;2023-04-01T23:23:06;5.90;99.90
36416;DHT22;22447;44.530;18.620;2023-04-01T23:35:48;5.70;99.90
36416;DHT22;22447;44.530;18.620;2023-04-01T23:38:14;5.70;99.90
36416;DHT22;22447;44.530;18.620;2023-04-01T23:40:40;5.70;99.90
36416;DHT22;22447;44.530;18.620;2023-04-01T23:43:40;5.70;99.90
36416;DHT22;22447;44.530;18.620;2023-04-01T23:45:58;5.70;99.90
36416;DHT22;22447;44.530;18.620;2023-04-01T23:48:29;5.60;99.90
36416;DHT22;22447;44.530;18.620;2023-04-01T23:50:56;5.70;99.90
36416;DHT22;22447;44.530;18.620;2023-04-01T23:53:24;5.80;99.90
36416;DHT22;22447;44.530;18.620;2023-04-01T23:55:51;5.90;99.90
36416;DHT22;22447;44.530;18.620;2023-04-01T23:58:24;5.90;99.90
